sensor_id;sensor_type;location;lat;lon;timestamp;pressure;altitude;pressure_sealevel;temperature
59339;BMP280;45117;50.960;5.500;2023-05-08T00:00:07;101088.97;;;15.26
59339;BMP280;45117;50.960;5.500;2023-05-08T00:02:34;101091.84;;;15.19
59339;BMP280;45117;50.960;5.500;2023-05-08T00:05:00;101099.66;;;15.13
59339;BMP280;45117;50.960;5.500;2023-05-08T00:07:27;101094.00;;;15.08
59339;BMP280;45117;50.960;5.500;2023-05-08T00:09:53;101096.44;;;15.02
59339;BMP280;45117;50.960;5.500;2023-05-08T00:12:20;101089.47;;;15.01
59339;BMP280;45117;50.960;5.500;2023-05-08T00:14:46;101092.44;;;14.90
59339;BMP280;45117;50.960;5.500;2023-05-08T00:17:14;101094.50;;;14.83
59339;BMP280;45117;50.960;5.500;2023-05-08T00:19:41;101094.56;;;14.79
59339;BMP280;45117;50.960;5.500;2023-05-08T00:22:07;101096.38;;;14.66
59339;BMP280;45117;50.960;5.500;2023-05-08T00:24:33;101089.09;;;14.63
59339;BMP280;45117;50.960;5.500;2023-05-08T00:27:00;101097.41;;;14.52
59339;BMP280;45117;50.960;5.500;2023-05-08T00:29:26;101099.03;;;14.46
59339;BMP280;45117;50.960;5.500;2023-05-08T00:31:53;101092.13;;;14.45
59339;BMP280;45117;50.960;5.500;2023-05-08T00:34:21;101097.81;;;14.51
59339;BMP280;45117;50.960;5.500;2023-05-08T00:36:47;101099.91;;;14.43
59339;BMP280;45117;50.960;5.500;2023-05-08T00:39:14;101095.72;;;14.38
59339;BMP280;45117;50.960;5.500;2023-05-08T00:41:40;101098.19;;;14.29
59339;BMP280;45117;50.960;5.500;2023-05-08T00:44:07;101104.63;;;14.39
59339;BMP280;45117;50.960;5.500;2023-05-08T00:46:34;101103.81;;;14.38
59339;BMP280;45117;50.960;5.500;2023-05-08T00:49:01;101099.97;;;14.39
59339;BMP280;45117;50.960;5.500;2023-05-08T00:51:33;101103.75;;;14.42
59339;BMP280;45117;50.960;5.500;2023-05-08T00:53:59;101102.19;;;14.45
59339;BMP280;45117;50.960;5.500;2023-05-08T00:56:27;101101.34;;;14.48
59339;BMP280;45117;50.960;5.500;2023-05-08T00:58:55;101100.06;;;14.56
59339;BMP280;45117;50.960;5.500;2023-05-08T01:01:21;101104.59;;;14.59
59339;BMP280;45117;50.960;5.500;2023-05-08T01:03:48;101102.25;;;14.61
59339;BMP280;45117;50.960;5.500;2023-05-08T01:06:15;101111.34;;;14.70
59339;BMP280;45117;50.960;5.500;2023-05-08T01:08:43;101102.28;;;14.81
59339;BMP280;45117;50.960;5.500;2023-05-08T01:11:14;101107.59;;;14.84
59339;BMP280;45117;50.960;5.500;2023-05-08T01:13:50;101111.91;;;14.82
59339;BMP280;45117;50.960;5.500;2023-05-08T01:16:22;101101.16;;;14.78
59339;BMP280;45117;50.960;5.500;2023-05-08T01:18:56;101102.41;;;14.73
59339;BMP280;45117;50.960;5.500;2023-05-08T01:21:30;101109.63;;;14.80
59339;BMP280;45117;50.960;5.500;2023-05-08T01:24:20;101095.81;;;14.94
59339;BMP280;45117;50.960;5.500;2023-05-08T01:27:11;101090.06;;;14.92
59339;BMP280;45117;50.960;5.500;2023-05-08T01:30:11;101091.25;;;14.91
59339;BMP280;45117;50.960;5.500;2023-05-08T01:32:44;101088.19;;;14.89
59339;BMP280;45117;50.960;5.500;2023-05-08T01:35:16;101090.91;;;14.89
59339;BMP280;45117;50.960;5.500;2023-05-08T01:37:58;101101.34;;;14.87
59339;BMP280;45117;50.960;5.500;2023-05-08T01:40:36;101100.88;;;14.92
59339;BMP280;45117;50.960;5.500;2023-05-08T01:43:13;101102.66;;;14.99
59339;BMP280;45117;50.960;5.500;2023-05-08T01:45:44;101092.94;;;15.01
59339;BMP280;45117;50.960;5.500;2023-05-08T01:48:16;101093.44;;;14.96
59339;BMP280;45117;50.960;5.500;2023-05-08T01:50:45;101092.59;;;14.99
59339;BMP280;45117;50.960;5.500;2023-05-08T01:53:17;101093.88;;;14.95
59339;BMP280;45117;50.960;5.500;2023-05-08T01:55:47;101100.47;;;14.94
59339;BMP280;45117;50.960;5.500;2023-05-08T01:58:15;101096.66;;;14.91
59339;BMP280;45117;50.960;5.500;2023-05-08T02:00:43;101108.91;;;14.96
59339;BMP280;45117;50.960;5.500;2023-05-08T02:03:13;101102.75;;;14.95
59339;BMP280;45117;50.960;5.500;2023-05-08T02:05:42;101104.75;;;14.91
59339;BMP280;45117;50.960;5.500;2023-05-08T02:08:11;101112.88;;;14.91
59339;BMP280;45117;50.960;5.500;2023-05-08T02:10:40;101110.94;;;14.92
59339;BMP280;45117;50.960;5.500;2023-05-08T02:13:09;101110.44;;;14.97
59339;BMP280;45117;50.960;5.500;2023-05-08T02:15:36;101107.25;;;15.02
59339;BMP280;45117;50.960;5.500;2023-05-08T02:18:04;101110.03;;;14.98
59339;BMP280;45117;50.960;5.500;2023-05-08T02:20:33;101110.34;;;15.00
59339;BMP280;45117;50.960;5.500;2023-05-08T02:23:01;101110.03;;;14.98
59339;BMP280;45117;50.960;5.500;2023-05-08T02:25:29;101109.59;;;15.00
59339;BMP280;45117;50.960;5.500;2023-05-08T02:27:56;101111.88;;;15.01
59339;BMP280;45117;50.960;5.500;2023-05-08T02:30:24;101116.06;;;15.06
59339;BMP280;45117;50.960;5.500;2023-05-08T02:32:52;101107.53;;;15.08
59339;BMP280;45117;50.960;5.500;2023-05-08T02:35:21;101111.53;;;14.99
59339;BMP280;45117;50.960;5.500;2023-05-08T02:37:52;101114.19;;;15.03
59339;BMP280;45117;50.960;5.500;2023-05-08T02:40:21;101115.47;;;14.98
59339;BMP280;45117;50.960;5.500;2023-05-08T02:42:48;101114.97;;;15.03
59339;BMP280;45117;50.960;5.500;2023-05-08T02:45:15;101108.84;;;14.99
59339;BMP280;45117;50.960;5.500;2023-05-08T02:47:52;101117.28;;;15.01
59339;BMP280;45117;50.960;5.500;2023-05-08T02:50:28;101113.44;;;15.02
59339;BMP280;45117;50.960;5.500;2023-05-08T02:53:01;101120.00;;;15.01
59339;BMP280;45117;50.960;5.500;2023-05-08T02:55:39;101106.91;;;15.00
59339;BMP280;45117;50.960;5.500;2023-05-08T02:58:12;101101.56;;;14.96
59339;BMP280;45117;50.960;5.500;2023-05-08T03:00:44;101104.94;;;15.00
59339;BMP280;45117;50.960;5.500;2023-05-08T03:03:19;101113.22;;;14.93
59339;BMP280;45117;50.960;5.500;2023-05-08T03:05:50;101106.84;;;15.03
59339;BMP280;45117;50.960;5.500;2023-05-08T03:08:23;101104.28;;;14.96
59339;BMP280;45117;50.960;5.500;2023-05-08T03:10:53;101100.72;;;14.99
59339;BMP280;45117;50.960;5.500;2023-05-08T03:13:20;101094.22;;;14.97
59339;BMP280;45117;50.960;5.500;2023-05-08T03:15:51;101101.97;;;14.95
59339;BMP280;45117;50.960;5.500;2023-05-08T03:18:22;101101.56;;;14.96
59339;BMP280;45117;50.960;5.500;2023-05-08T03:20:53;101098.09;;;14.96
59339;BMP280;45117;50.960;5.500;2023-05-08T03:23:22;101095.81;;;14.94
59339;BMP280;45117;50.960;5.500;2023-05-08T03:25:50;101105.09;;;14.93
59339;BMP280;45117;50.960;5.500;2023-05-08T03:28:18;101102.06;;;14.91
59339;BMP280;45117;50.960;5.500;2023-05-08T03:30:47;101108.66;;;14.90
59339;BMP280;45117;50.960;5.500;2023-05-08T03:33:15;101106.28;;;14.92
59339;BMP280;45117;50.960;5.500;2023-05-08T03:35:44;101100.88;;;14.92
59339;BMP280;45117;50.960;5.500;2023-05-08T03:38:11;101108.91;;;14.96
59339;BMP280;45117;50.960;5.500;2023-05-08T03:40:39;101115.09;;;14.96
59339;BMP280;45117;50.960;5.500;2023-05-08T03:43:07;101107.66;;;15.00
59339;BMP280;45117;50.960;5.500;2023-05-08T03:45:34;101106.06;;;15.03
59339;BMP280;45117;50.960;5.500;2023-05-08T03:48:02;101100.22;;;15.04
59339;BMP280;45117;50.960;5.500;2023-05-08T03:50:30;101102.25;;;15.00
59339;BMP280;45117;50.960;5.500;2023-05-08T03:52:57;101098.34;;;15.01
59339;BMP280;45117;50.960;5.500;2023-05-08T03:55:24;101094.88;;;15.01
59339;BMP280;45117;50.960;5.500;2023-05-08T03:57:55;101099.53;;;15.00
59339;BMP280;45117;50.960;5.500;2023-05-08T04:00:29;101107.16;;;15.06
59339;BMP280;45117;50.960;5.500;2023-05-08T04:03:08;101105.63;;;15.04
59339;BMP280;45117;50.960;5.500;2023-05-08T04:05:43;101107.88;;;15.10
59339;BMP280;45117;50.960;5.500;2023-05-08T04:08:16;101106.69;;;15.11
59339;BMP280;45117;50.960;5.500;2023-05-08T04:10:48;101104.75;;;15.11
59339;BMP280;45117;50.960;5.500;2023-05-08T04:13:21;101108.19;;;15.12
59339;BMP280;45117;50.960;5.500;2023-05-08T04:15:51;101113.56;;;15.15
59339;BMP280;45117;50.960;5.500;2023-05-08T04:18:23;101115.06;;;15.16
59339;BMP280;45117;50.960;5.500;2023-05-08T04:20:53;101107.78;;;15.13
59339;BMP280;45117;50.960;5.500;2023-05-08T04:23:21;101118.22;;;15.15
59339;BMP280;45117;50.960;5.500;2023-05-08T04:25:50;101120.81;;;15.18
59339;BMP280;45117;50.960;5.500;2023-05-08T04:28:19;101116.19;;;15.19
59339;BMP280;45117;50.960;5.500;2023-05-08T04:30:46;101124.66;;;15.21
59339;BMP280;45117;50.960;5.500;2023-05-08T04:33:13;101117.22;;;15.25
59339;BMP280;45117;50.960;5.500;2023-05-08T04:35:40;101121.44;;;15.26
59339;BMP280;45117;50.960;5.500;2023-05-08T04:38:06;101119.91;;;15.25
59339;BMP280;45117;50.960;5.500;2023-05-08T04:40:33;101122.19;;;15.26
59339;BMP280;45117;50.960;5.500;2023-05-08T04:42:59;101123.28;;;15.29
59339;BMP280;45117;50.960;5.500;2023-05-08T04:45:27;101119.31;;;15.33
59339;BMP280;45117;50.960;5.500;2023-05-08T04:47:54;101125.94;;;15.32
59339;BMP280;45117;50.960;5.500;2023-05-08T04:50:20;101127.53;;;15.30
59339;BMP280;45117;50.960;5.500;2023-05-08T04:52:47;101124.00;;;15.33
59339;BMP280;45117;50.960;5.500;2023-05-08T04:55:13;101126.72;;;15.33
59339;BMP280;45117;50.960;5.500;2023-05-08T04:57:40;101128.56;;;15.36
59339;BMP280;45117;50.960;5.500;2023-05-08T05:00:07;101127.31;;;15.41
59339;BMP280;45117;50.960;5.500;2023-05-08T05:02:36;101129.25;;;15.40
59339;BMP280;45117;50.960;5.500;2023-05-08T05:05:02;101127.97;;;15.45
59339;BMP280;45117;50.960;5.500;2023-05-08T05:07:30;101136.44;;;15.47
59339;BMP280;45117;50.960;5.500;2023-05-08T05:09:56;101137.63;;;15.46
59339;BMP280;45117;50.960;5.500;2023-05-08T05:12:22;101142.47;;;15.54
59339;BMP280;45117;50.960;5.500;2023-05-08T05:14:49;101144.00;;;15.55
59339;BMP280;45117;50.960;5.500;2023-05-08T05:17:15;101145.84;;;15.58
59339;BMP280;45117;50.960;5.500;2023-05-08T05:19:43;101147.38;;;15.59
59339;BMP280;45117;50.960;5.500;2023-05-08T05:22:10;101144.00;;;15.55
59339;BMP280;45117;50.960;5.500;2023-05-08T05:24:36;101144.00;;;15.55
59339;BMP280;45117;50.960;5.500;2023-05-08T05:27:04;101151.63;;;15.60
59339;BMP280;45117;50.960;5.500;2023-05-08T05:29:30;101160.44;;;15.65
59339;BMP280;45117;50.960;5.500;2023-05-08T05:31:57;101153.56;;;15.60
59339;BMP280;45117;50.960;5.500;2023-05-08T05:34:23;101160.00;;;15.66
59339;BMP280;45117;50.960;5.500;2023-05-08T05:36:51;101164.22;;;15.67
59339;BMP280;45117;50.960;5.500;2023-05-08T05:39:17;101160.44;;;15.65
59339;BMP280;45117;50.960;5.500;2023-05-08T05:41:44;101160.44;;;15.65
59339;BMP280;45117;50.960;5.500;2023-05-08T05:44:11;101168.44;;;15.68
59339;BMP280;45117;50.960;5.500;2023-05-08T05:46:37;101176.06;;;15.73
59339;BMP280;45117;50.960;5.500;2023-05-08T05:49:04;101180.03;;;15.69
59339;BMP280;45117;50.960;5.500;2023-05-08T05:51:30;101170.88;;;15.62
59339;BMP280;45117;50.960;5.500;2023-05-08T05:53:58;101175.03;;;15.67
59339;BMP280;45117;50.960;5.500;2023-05-08T05:56:24;101179.00;;;15.62
59339;BMP280;45117;50.960;5.500;2023-05-08T05:58:52;101186.72;;;15.64
59339;BMP280;45117;50.960;5.500;2023-05-08T06:01:18;101180.91;;;15.66
59339;BMP280;45117;50.960;5.500;2023-05-08T06:03:45;101182.84;;;15.65
59339;BMP280;45117;50.960;5.500;2023-05-08T06:06:11;101181.41;;;15.60
59339;BMP280;45117;50.960;5.500;2023-05-08T06:08:38;101183.59;;;15.66
59339;BMP280;45117;50.960;5.500;2023-05-08T06:11:05;101188.66;;;15.63
59339;BMP280;45117;50.960;5.500;2023-05-08T06:13:32;101192.50;;;15.66
59339;BMP280;45117;50.960;5.500;2023-05-08T06:15:59;101191.78;;;15.62
59339;BMP280;45117;50.960;5.500;2023-05-08T06:18:25;101198.66;;;15.67
59339;BMP280;45117;50.960;5.500;2023-05-08T06:20:55;101200.91;;;15.68
59339;BMP280;45117;50.960;5.500;2023-05-08T06:23:22;101202.47;;;15.69
59339;BMP280;45117;50.960;5.500;2023-05-08T06:25:48;101195.63;;;15.65
59339;BMP280;45117;50.960;5.500;2023-05-08T06:28:16;101199.16;;;15.61
59339;BMP280;45117;50.960;5.500;2023-05-08T06:30:43;101204.56;;;15.61
59339;BMP280;45117;50.960;5.500;2023-05-08T06:33:09;101196.09;;;15.59
59339;BMP280;45117;50.960;5.500;2023-05-08T06:35:36;101203.53;;;15.55
59339;BMP280;45117;50.960;5.500;2023-05-08T06:38:03;101212.50;;;15.52
59339;BMP280;45117;50.960;5.500;2023-05-08T06:40:30;101213.53;;;15.58
59339;BMP280;45117;50.960;5.500;2023-05-08T06:42:56;101205.56;;;15.68
59339;BMP280;45117;50.960;5.500;2023-05-08T06:45:24;101213.69;;;15.68
59339;BMP280;45117;50.960;5.500;2023-05-08T06:47:51;101208.88;;;15.59
59339;BMP280;45117;50.960;5.500;2023-05-08T06:50:17;101211.75;;;15.68
59339;BMP280;45117;50.960;5.500;2023-05-08T06:52:44;101209.75;;;15.72
59339;BMP280;45117;50.960;5.500;2023-05-08T06:55:10;101216.94;;;15.79
59339;BMP280;45117;50.960;5.500;2023-05-08T06:57:37;101213.63;;;15.71
59339;BMP280;45117;50.960;5.500;2023-05-08T07:00:04;101223.63;;;15.74
59339;BMP280;45117;50.960;5.500;2023-05-08T07:02:32;101212.72;;;15.78
59339;BMP280;45117;50.960;5.500;2023-05-08T07:04:59;101224.13;;;15.69
59339;BMP280;45117;50.960;5.500;2023-05-08T07:07:26;101225.53;;;15.77
59339;BMP280;45117;50.960;5.500;2023-05-08T07:09:52;101231.66;;;15.78
59339;BMP280;45117;50.960;5.500;2023-05-08T07:12:18;101225.91;;;15.76
59339;BMP280;45117;50.960;5.500;2023-05-08T07:14:45;101228.88;;;15.81
59339;BMP280;45117;50.960;5.500;2023-05-08T07:17:11;101233.19;;;15.79
59339;BMP280;45117;50.960;5.500;2023-05-08T07:19:39;101237.94;;;15.75
59339;BMP280;45117;50.960;5.500;2023-05-08T07:22:06;101238.94;;;15.81
59339;BMP280;45117;50.960;5.500;2023-05-08T07:24:32;101231.59;;;15.81
59339;BMP280;45117;50.960;5.500;2023-05-08T07:26:59;101240.91;;;15.80
59339;BMP280;45117;50.960;5.500;2023-05-08T07:29:25;101235.41;;;15.84
59339;BMP280;45117;50.960;5.500;2023-05-08T07:31:54;101245.53;;;15.80
59339;BMP280;45117;50.960;5.500;2023-05-08T07:34:21;101232.69;;;15.84
59339;BMP280;45117;50.960;5.500;2023-05-08T07:36:49;101239.84;;;15.94
59339;BMP280;45117;50.960;5.500;2023-05-08T07:39:15;101237.88;;;15.94
59339;BMP280;45117;50.960;5.500;2023-05-08T07:41:42;101236.94;;;16.01
59339;BMP280;45117;50.960;5.500;2023-05-08T07:44:09;101244.50;;;16.10
59339;BMP280;45117;50.960;5.500;2023-05-08T07:46:36;101236.97;;;16.17
59339;BMP280;45117;50.960;5.500;2023-05-08T07:49:03;101240.69;;;16.40
59339;BMP280;45117;50.960;5.500;2023-05-08T07:51:29;101235.00;;;16.50
59339;BMP280;45117;50.960;5.500;2023-05-08T07:53:57;101233.16;;;16.76
59339;BMP280;45117;50.960;5.500;2023-05-08T07:56:24;101234.56;;;16.97
59339;BMP280;45117;50.960;5.500;2023-05-08T07:58:51;101231.97;;;17.06
59339;BMP280;45117;50.960;5.500;2023-05-08T08:01:17;101222.03;;;17.16
59339;BMP280;45117;50.960;5.500;2023-05-08T08:03:44;101223.88;;;17.32
59339;BMP280;45117;50.960;5.500;2023-05-08T08:06:11;101222.31;;;17.60
59339;BMP280;45117;50.960;5.500;2023-05-08T08:08:37;101229.81;;;17.68
59339;BMP280;45117;50.960;5.500;2023-05-08T08:11:06;101230.66;;;17.65
59339;BMP280;45117;50.960;5.500;2023-05-08T08:13:32;101227.63;;;17.76
59339;BMP280;45117;50.960;5.500;2023-05-08T08:15:59;101227.19;;;17.77
59339;BMP280;45117;50.960;5.500;2023-05-08T08:18:28;101217.53;;;17.89
59339;BMP280;45117;50.960;5.500;2023-05-08T08:20:54;101228.25;;;18.05
59339;BMP280;45117;50.960;5.500;2023-05-08T08:23:21;101224.22;;;18.23
59339;BMP280;45117;50.960;5.500;2023-05-08T08:25:47;101220.31;;;18.46
59339;BMP280;45117;50.960;5.500;2023-05-08T08:28:16;101232.56;;;19.07
59339;BMP280;45117;50.960;5.500;2023-05-08T08:30:42;101232.44;;;19.10
59339;BMP280;45117;50.960;5.500;2023-05-08T08:33:09;101225.91;;;18.86
59339;BMP280;45117;50.960;5.500;2023-05-08T08:35:35;101229.19;;;19.02
59339;BMP280;45117;50.960;5.500;2023-05-08T08:38:02;101231.81;;;19.06
59339;BMP280;45117;50.960;5.500;2023-05-08T08:40:29;101229.19;;;18.81
59339;BMP280;45117;50.960;5.500;2023-05-08T08:42:55;101230.66;;;19.25
59339;BMP280;45117;50.960;5.500;2023-05-08T08:45:23;101230.66;;;18.94
59339;BMP280;45117;50.960;5.500;2023-05-08T08:47:51;101227.44;;;18.87
59339;BMP280;45117;50.960;5.500;2023-05-08T08:50:18;101222.91;;;18.84
59339;BMP280;45117;50.960;5.500;2023-05-08T08:52:49;101226.00;;;19.04
59339;BMP280;45117;50.960;5.500;2023-05-08T08:55:18;101220.03;;;18.87
59339;BMP280;45117;50.960;5.500;2023-05-08T08:57:54;101222.94;;;18.93
59339;BMP280;45117;50.960;5.500;2023-05-08T09:00:27;101232.50;;;19.28
59339;BMP280;45117;50.960;5.500;2023-05-08T09:02:55;101220.41;;;19.29
59339;BMP280;45117;50.960;5.500;2023-05-08T09:05:21;101223.78;;;19.12
59339;BMP280;45117;50.960;5.500;2023-05-08T09:07:53;101227.75;;;19.11
59339;BMP280;45117;50.960;5.500;2023-05-08T09:10:21;101229.44;;;19.17
59339;BMP280;45117;50.960;5.500;2023-05-08T09:12:48;101231.13;;;19.24
59339;BMP280;45117;50.960;5.500;2023-05-08T09:15:15;101235.84;;;19.01
59339;BMP280;45117;50.960;5.500;2023-05-08T09:17:42;101232.56;;;18.85
59339;BMP280;45117;50.960;5.500;2023-05-08T09:20:10;101232.56;;;18.85
59339;BMP280;45117;50.960;5.500;2023-05-08T09:22:39;101237.41;;;18.90
59339;BMP280;45117;50.960;5.500;2023-05-08T09:25:06;101243.50;;;19.16
59339;BMP280;45117;50.960;5.500;2023-05-08T09:27:33;101231.34;;;19.39
59339;BMP280;45117;50.960;5.500;2023-05-08T09:30:02;101239.31;;;19.55
59339;BMP280;45117;50.960;5.500;2023-05-08T09:32:29;101238.81;;;19.56
59339;BMP280;45117;50.960;5.500;2023-05-08T09:34:58;101232.97;;;19.67
59339;BMP280;45117;50.960;5.500;2023-05-08T09:37:26;101236.00;;;19.60
59339;BMP280;45117;50.960;5.500;2023-05-08T09:39:53;101239.88;;;19.50
59339;BMP280;45117;50.960;5.500;2023-05-08T09:42:20;101238.78;;;19.38
59339;BMP280;45117;50.960;5.500;2023-05-08T09:44:49;101244.22;;;19.38
59339;BMP280;45117;50.960;5.500;2023-05-08T09:47:17;101246.34;;;19.43
59339;BMP280;45117;50.960;5.500;2023-05-08T09:49:58;101244.97;;;19.17
59339;BMP280;45117;50.960;5.500;2023-05-08T09:52:25;101236.78;;;19.39
59339;BMP280;45117;50.960;5.500;2023-05-08T09:54:58;101241.50;;;19.38
59339;BMP280;45117;50.960;5.500;2023-05-08T09:57:25;101245.56;;;19.33
59339;BMP280;45117;50.960;5.500;2023-05-08T09:59:59;101244.13;;;19.51
59339;BMP280;45117;50.960;5.500;2023-05-08T10:02:27;101245.16;;;19.93
59339;BMP280;45117;50.960;5.500;2023-05-08T10:04:53;101241.41;;;20.37
59339;BMP280;45117;50.960;5.500;2023-05-08T10:07:28;101244.13;;;20.18
59339;BMP280;45117;50.960;5.500;2023-05-08T10:10:00;101239.44;;;20.46
59339;BMP280;45117;50.960;5.500;2023-05-08T10:12:27;101231.09;;;20.41
59339;BMP280;45117;50.960;5.500;2023-05-08T10:14:54;101246.72;;;20.31
59339;BMP280;45117;50.960;5.500;2023-05-08T10:17:25;101233.38;;;20.42
59339;BMP280;45117;50.960;5.500;2023-05-08T10:19:55;101237.16;;;20.54
59339;BMP280;45117;50.960;5.500;2023-05-08T10:22:24;101240.03;;;20.59
59339;BMP280;45117;50.960;5.500;2023-05-08T10:24:55;101235.03;;;20.49
59339;BMP280;45117;50.960;5.500;2023-05-08T10:27:29;101237.31;;;20.50
59339;BMP280;45117;50.960;5.500;2023-05-08T10:30:02;101244.59;;;20.44
59339;BMP280;45117;50.960;5.500;2023-05-08T10:32:36;101237.16;;;20.36
59339;BMP280;45117;50.960;5.500;2023-05-08T10:35:07;101240.50;;;20.30
59339;BMP280;45117;50.960;5.500;2023-05-08T10:37:35;101242.59;;;20.72
59339;BMP280;45117;50.960;5.500;2023-05-08T10:40:05;101236.94;;;21.03
59339;BMP280;45117;50.960;5.500;2023-05-08T10:42:32;101238.47;;;20.95
59339;BMP280;45117;50.960;5.500;2023-05-08T10:45:03;101244.06;;;21.01
59339;BMP280;45117;50.960;5.500;2023-05-08T10:47:38;101232.81;;;21.50
59339;BMP280;45117;50.960;5.500;2023-05-08T10:50:15;101233.97;;;21.25
59339;BMP280;45117;50.960;5.500;2023-05-08T10:52:49;101220.69;;;21.89
59339;BMP280;45117;50.960;5.500;2023-05-08T10:55:22;101226.97;;;21.81
59339;BMP280;45117;50.960;5.500;2023-05-08T10:58:04;101225.38;;;21.74
59339;BMP280;45117;50.960;5.500;2023-05-08T11:00:32;101222.97;;;21.67
59339;BMP280;45117;50.960;5.500;2023-05-08T11:03:05;101221.34;;;21.84
59339;BMP280;45117;50.960;5.500;2023-05-08T11:05:44;101222.03;;;22.33
59339;BMP280;45117;50.960;5.500;2023-05-08T11:08:14;101219.28;;;22.18
59339;BMP280;45117;50.960;5.500;2023-05-08T11:10:43;101218.69;;;23.17
59339;BMP280;45117;50.960;5.500;2023-05-08T11:13:10;101219.03;;;22.75
59339;BMP280;45117;50.960;5.500;2023-05-08T11:15:38;101213.06;;;22.91
59339;BMP280;45117;50.960;5.500;2023-05-08T11:18:06;101216.31;;;23.24
59339;BMP280;45117;50.960;5.500;2023-05-08T11:20:37;101203.81;;;22.59
59339;BMP280;45117;50.960;5.500;2023-05-08T11:23:23;101207.56;;;22.91
59339;BMP280;45117;50.960;5.500;2023-05-08T11:25:59;101197.38;;;23.26
59339;BMP280;45117;50.960;5.500;2023-05-08T11:28:26;101193.03;;;23.00
59339;BMP280;45117;50.960;5.500;2023-05-08T11:30:53;101190.38;;;23.05
59339;BMP280;45117;50.960;5.500;2023-05-08T11:33:21;101197.19;;;23.91
59339;BMP280;45117;50.960;5.500;2023-05-08T11:35:52;101193.88;;;24.39
59339;BMP280;45117;50.960;5.500;2023-05-08T11:38:23;101195.50;;;24.56
59339;BMP280;45117;50.960;5.500;2023-05-08T11:40:59;101184.66;;;23.64
59339;BMP280;45117;50.960;5.500;2023-05-08T11:43:35;101196.41;;;23.90
59339;BMP280;45117;50.960;5.500;2023-05-08T11:46:12;101183.41;;;24.37
59339;BMP280;45117;50.960;5.500;2023-05-08T11:48:39;101178.44;;;24.41
59339;BMP280;45117;50.960;5.500;2023-05-08T11:51:06;101183.38;;;23.85
59339;BMP280;45117;50.960;5.500;2023-05-08T11:53:33;101182.13;;;25.07
59339;BMP280;45117;50.960;5.500;2023-05-08T11:56:02;101183.00;;;24.50
59339;BMP280;45117;50.960;5.500;2023-05-08T11:58:29;101180.16;;;25.13
59339;BMP280;45117;50.960;5.500;2023-05-08T12:00:56;101184.72;;;24.84
59339;BMP280;45117;50.960;5.500;2023-05-08T12:03:23;101177.22;;;24.79
59339;BMP280;45117;50.960;5.500;2023-05-08T12:05:50;101173.31;;;24.97
59339;BMP280;45117;50.960;5.500;2023-05-08T12:08:18;101169.38;;;25.85
59339;BMP280;45117;50.960;5.500;2023-05-08T12:10:48;101174.41;;;26.48
59339;BMP280;45117;50.960;5.500;2023-05-08T12:13:18;101168.59;;;26.57
59339;BMP280;45117;50.960;5.500;2023-05-08T12:15:46;101165.47;;;25.21
59339;BMP280;45117;50.960;5.500;2023-05-08T12:18:14;101163.09;;;25.68
59339;BMP280;45117;50.960;5.500;2023-05-08T12:20:41;101161.13;;;25.91
59339;BMP280;45117;50.960;5.500;2023-05-08T12:23:08;101158.81;;;26.62
59339;BMP280;45117;50.960;5.500;2023-05-08T12:25:36;101163.41;;;26.15
59339;BMP280;45117;50.960;5.500;2023-05-08T12:28:05;101162.53;;;25.53
59339;BMP280;45117;50.960;5.500;2023-05-08T12:30:33;101151.88;;;25.94
59339;BMP280;45117;50.960;5.500;2023-05-08T12:33:00;101153.13;;;26.10
59339;BMP280;45117;50.960;5.500;2023-05-08T12:35:27;101156.34;;;26.41
59339;BMP280;45117;50.960;5.500;2023-05-08T12:37:59;101160.06;;;26.66
59339;BMP280;45117;50.960;5.500;2023-05-08T12:40:27;101150.75;;;26.86
59339;BMP280;45117;50.960;5.500;2023-05-08T12:42:54;101152.88;;;26.08
59339;BMP280;45117;50.960;5.500;2023-05-08T12:45:22;101143.84;;;26.35
59339;BMP280;45117;50.960;5.500;2023-05-08T12:47:51;101145.59;;;26.38
59339;BMP280;45117;50.960;5.500;2023-05-08T12:50:20;101139.34;;;26.04
59339;BMP280;45117;50.960;5.500;2023-05-08T12:52:47;101138.13;;;25.88
59339;BMP280;45117;50.960;5.500;2023-05-08T12:55:21;101134.34;;;26.19
59339;BMP280;45117;50.960;5.500;2023-05-08T12:57:48;101141.59;;;26.39
59339;BMP280;45117;50.960;5.500;2023-05-08T13:00:16;101137.47;;;26.85
59339;BMP280;45117;50.960;5.500;2023-05-08T13:02:55;101126.16;;;26.88
59339;BMP280;45117;50.960;5.500;2023-05-08T13:05:22;101121.13;;;26.92
59339;BMP280;45117;50.960;5.500;2023-05-08T13:07:49;101119.56;;;26.00
59339;BMP280;45117;50.960;5.500;2023-05-08T13:10:17;101104.81;;;25.86
59339;BMP280;45117;50.960;5.500;2023-05-08T13:12:44;101108.84;;;26.02
59339;BMP280;45117;50.960;5.500;2023-05-08T13:15:10;101105.28;;;25.74
59339;BMP280;45117;50.960;5.500;2023-05-08T13:17:37;101107.03;;;25.60
59339;BMP280;45117;50.960;5.500;2023-05-08T13:20:06;101106.53;;;25.61
59339;BMP280;45117;50.960;5.500;2023-05-08T13:22:33;101107.09;;;26.04
59339;BMP280;45117;50.960;5.500;2023-05-08T13:24:59;101103.53;;;25.59
59339;BMP280;45117;50.960;5.500;2023-05-08T13:27:26;101106.78;;;25.47
59339;BMP280;45117;50.960;5.500;2023-05-08T13:29:52;101104.16;;;25.10
59339;BMP280;45117;50.960;5.500;2023-05-08T13:32:19;101094.78;;;24.79
59339;BMP280;45117;50.960;5.500;2023-05-08T13:34:46;101088.13;;;24.97
59339;BMP280;45117;50.960;5.500;2023-05-08T13:37:14;101094.53;;;24.83
59339;BMP280;45117;50.960;5.500;2023-05-08T13:39:40;101084.31;;;24.83
59339;BMP280;45117;50.960;5.500;2023-05-08T13:42:07;101090.91;;;24.60
59339;BMP280;45117;50.960;5.500;2023-05-08T13:44:33;101086.94;;;24.61
59339;BMP280;45117;50.960;5.500;2023-05-08T13:46:59;101086.25;;;24.72
59339;BMP280;45117;50.960;5.500;2023-05-08T13:49:26;101086.09;;;24.92
59339;BMP280;45117;50.960;5.500;2023-05-08T13:51:52;101086.28;;;24.83
59339;BMP280;45117;50.960;5.500;2023-05-08T13:54:20;101080.97;;;25.39
59339;BMP280;45117;50.960;5.500;2023-05-08T13:56:47;101085.44;;;25.19
59339;BMP280;45117;50.960;5.500;2023-05-08T13:59:14;101090.00;;;25.33
59339;BMP280;45117;50.960;5.500;2023-05-08T14:01:40;101079.50;;;25.43
59339;BMP280;45117;50.960;5.500;2023-05-08T14:04:07;101072.03;;;25.55